Time;durP1;ratioP1;P1;durP2;ratioP2;P2;SDS_P1;SDS_P2;PMS_P1;PMS_P2;Temp;Humidity;BMP_temperature;BMP_pressure;BME280_temperature;BME280_humidity;BME280_pressure;Samples;Min_cycle;Max_cycle;Signal;HPM_P1;HPM_P2
2023/12/10 00:00:56;;;;;;;163.50;70.10;;;;;;;;;;106993;1253;60788;-78
2023/12/10 00:03:43;;;;;;;158.60;69.70;;;;;;;;;;107004;1251;59749;-80
2023/12/10 00:06:09;;;;;;;159.90;68.50;;;;;;;;;;107047;1253;59887;-81
2023/12/10 00:08:36;;;;;;;151.40;67.50;;;;;;;;;;107067;1251;59277;-79
2023/12/10 00:11:02;;;;;;;165.60;70.40;;;;;;;;;;107035;1251;59768;-79
2023/12/10 00:13:29;;;;;;;172.10;79.80;;;;;;;;;;107043;1251;60941;-80
2023/12/10 00:15:55;;;;;;;180.20;83.70;;;;;;;;;;107043;1251;59876;-78
2023/12/10 00:18:22;;;;;;;166.00;74.10;;;;;;;;;;107045;1254;61994;-79
2023/12/10 00:20:48;;;;;;;172.50;81.10;;;;;;;;;;107039;1251;62007;-79
2023/12/10 00:23:15;;;;;;;164.90;79.70;;;;;;;;;;107087;1254;61593;-79
2023/12/10 00:25:43;;;;;;;149.40;66.80;;;;;;;;;;107015;1251;59794;-80
2023/12/10 00:28:09;;;;;;;174.20;71.40;;;;;;;;;;106972;1251;61183;-78
2023/12/10 00:30:36;;;;;;;159.20;76.00;;;;;;;;;;106918;1251;59911;-79
2023/12/10 00:33:03;;;;;;;161.50;73.60;;;;;;;;;;109613;1251;61686;-79
2023/12/10 00:35:30;;;;;;;157.70;77.20;;;;;;;;;;109603;1251;58849;-79
2023/12/10 00:37:57;;;;;;;168.10;73.70;;;;;;;;;;109567;1251;60376;-79
2023/12/10 00:40:23;;;;;;;176.90;81.90;;;;;;;;;;109577;1250;59151;-78
2023/12/10 00:42:51;;;;;;;149.60;72.60;;;;;;;;;;109607;1251;59109;-79
2023/12/10 00:45:17;;;;;;;126.90;53.40;;;;;;;;;;109586;1250;61757;-78
2023/12/10 00:47:43;;;;;;;154.60;71.30;;;;;;;;;;109595;1251;59054;-79
2023/12/10 00:50:10;;;;;;;149.50;64.30;;;;;;;;;;109570;1251;58934;-79
2023/12/10 00:52:37;;;;;;;162.20;75.70;;;;;;;;;;109564;1251;59103;-79
2023/12/10 00:55:04;;;;;;;163.40;74.80;;;;;;;;;;109554;1251;58915;-79
2023/12/10 00:57:30;;;;;;;154.30;73.60;;;;;;;;;;109594;1250;60761;-79
2023/12/10 00:59:56;;;;;;;149.10;64.40;;;;;;;;;;109491;1251;58868;-79
2023/12/10 01:02:23;;;;;;;133.20;60.00;;;;;;;;;;107112;1252;60736;-79
2023/12/10 01:04:50;;;;;;;122.00;57.40;;;;;;;;;;106876;1252;59904;-78
2023/12/10 01:07:18;;;;;;;115.20;54.90;;;;;;;;;;106954;1253;59857;-78
2023/12/10 01:09:44;;;;;;;112.50;53.20;;;;;;;;;;106944;1251;63120;-79
2023/12/10 01:12:11;;;;;;;121.10;53.60;;;;;;;;;;106999;1253;60917;-80
2023/12/10 01:14:37;;;;;;;117.70;55.90;;;;;;;;;;106925;1253;60314;-79
2023/12/10 01:17:04;;;;;;;125.30;53.80;;;;;;;;;;106940;1253;60840;-79
2023/12/10 01:19:30;;;;;;;120.30;52.30;;;;;;;;;;107003;1253;59676;-79
2023/12/10 01:21:57;;;;;;;122.00;56.00;;;;;;;;;;107037;1252;62618;-79
2023/12/10 01:24:23;;;;;;;132.70;55.20;;;;;;;;;;108684;1251;59363;-79
2023/12/10 01:26:50;;;;;;;118.80;54.00;;;;;;;;;;109609;1251;58890;-78
2023/12/10 01:29:16;;;;;;;104.70;49.30;;;;;;;;;;109516;1252;58907;-78
2023/12/10 01:31:43;;;;;;;107.20;52.00;;;;;;;;;;108531;1253;59836;-79
2023/12/10 01:34:09;;;;;;;102.30;49.00;;;;;;;;;;107028;1252;61212;-78
2023/12/10 01:36:36;;;;;;;106.00;46.80;;;;;;;;;;107020;1253;60833;-79
2023/12/10 01:39:03;;;;;;;116.10;51.00;;;;;;;;;;107013;1253;60877;-78
2023/12/10 01:41:30;;;;;;;108.60;48.60;;;;;;;;;;107005;1253;60840;-78
2023/12/10 01:43:56;;;;;;;108.10;47.50;;;;;;;;;;106975;1253;61031;-79
2023/12/10 01:46:23;;;;;;;125.40;55.60;;;;;;;;;;106957;1253;60868;-78
2023/12/10 01:48:50;;;;;;;118.20;52.50;;;;;;;;;;106985;1253;59922;-78
2023/12/10 01:51:17;;;;;;;119.90;57.20;;;;;;;;;;106985;1255;60293;-79
2023/12/10 01:53:44;;;;;;;158.30;70.90;;;;;;;;;;107033;1251;61249;-78
2023/12/10 01:56:10;;;;;;;151.10;66.70;;;;;;;;;;106995;1253;60948;-78
2023/12/10 01:58:38;;;;;;;175.80;79.90;;;;;;;;;;107072;1251;61952;-78
2023/12/10 02:01:05;;;;;;;156.10;61.70;;;;;;;;;;107041;1253;59809;-79
2023/12/10 02:03:33;;;;;;;192.60;82.70;;;;;;;;;;108000;1251;60645;-78
2023/12/10 02:05:59;;;;;;;186.70;82.30;;;;;;;;;;109563;1253;58846;-79
2023/12/10 02:08:26;;;;;;;155.50;74.50;;;;;;;;;;109571;1250;58958;-79
2023/12/10 02:10:52;;;;;;;174.60;79.20;;;;;;;;;;109581;1251;59081;-79
2023/12/10 02:13:19;;;;;;;179.00;82.90;;;;;;;;;;109571;1251;59145;-79
2023/12/10 02:15:45;;;;;;;148.70;65.10;;;;;;;;;;109533;1251;58908;-79
2023/12/10 02:18:11;;;;;;;105.90;51.70;;;;;;;;;;109561;1251;58868;-79
2023/12/10 02:20:38;;;;;;;106.40;51.70;;;;;;;;;;107315;1251;59893;-78
2023/12/10 02:23:28;;;;;;;101.80;50.10;;;;;;;;;;107044;1251;59928;-78
2023/12/10 02:25:54;;;;;;;79.60;39.80;;;;;;;;;;106913;1254;59126;-78
2023/12/10 02:28:22;;;;;;;88.00;39.80;;;;;;;;;;107006;1251;60661;-79
2023/12/10 02:30:49;;;;;;;131.80;55.40;;;;;;;;;;107021;1253;61992;-79
2023/12/10 02:33:16;;;;;;;155.70;70.10;;;;;;;;;;107038;1253;60734;-79
2023/12/10 02:35:42;;;;;;;139.00;68.00;;;;;;;;;;107030;1251;60800;-79
2023/12/10 02:38:09;;;;;;;153.70;66.20;;;;;;;;;;106978;1253;59554;-79
2023/12/10 02:40:35;;;;;;;138.80;65.60;;;;;;;;;;106978;1253;60843;-79
2023/12/10 02:43:02;;;;;;;140.40;63.00;;;;;;;;;;106981;1251;60661;-78
2023/12/10 02:45:29;;;;;;;128.20;61.00;;;;;;;;;;106998;1251;59141;-79
2023/12/10 02:47:55;;;;;;;102.50;49.20;;;;;;;;;;106990;1254;59784;-79
2023/12/10 02:50:22;;;;;;;111.50;50.20;;;;;;;;;;107051;1251;60366;-77
2023/12/10 02:52:48;;;;;;;87.40;41.00;;;;;;;;;;106980;1250;59828;-78
2023/12/10 02:55:15;;;;;;;82.70;39.90;;;;;;;;;;106930;1253;59521;-78
2023/12/10 02:57:41;;;;;;;71.00;33.20;;;;;;;;;;106998;1251;60813;-78
2023/12/10 03:00:08;;;;;;;110.90;57.10;;;;;;;;;;106954;1251;60781;-78
2023/12/10 03:02:34;;;;;;;86.60;44.80;;;;;;;;;;106949;1252;61645;-79
2023/12/10 03:05:01;;;;;;;87.30;43.00;;;;;;;;;;106965;1251;61903;-79
2023/12/10 03:07:27;;;;;;;64.50;34.40;;;;;;;;;;106982;1251;60880;-78
2023/12/10 03:09:53;;;;;;;41.80;23.10;;;;;;;;;;107002;1251;60290;-79
2023/12/10 03:12:20;;;;;;;46.70;23.50;;;;;;;;;;107035;1255;59775;-79
2023/12/10 03:14:46;;;;;;;55.00;24.70;;;;;;;;;;107087;1252;60791;-78
2023/12/10 03:17:13;;;;;;;57.90;27.10;;;;;;;;;;106989;1251;62112;-79
2023/12/10 03:19:40;;;;;;;63.00;28.20;;;;;;;;;;107032;1252;59920;-79
2023/12/10 03:22:06;;;;;;;51.30;25.60;;;;;;;;;;107098;1254;60760;-78
2023/12/10 03:24:33;;;;;;;66.70;30.70;;;;;;;;;;107053;1251;60996;-79
2023/12/10 03:26:59;;;;;;;51.80;26.60;;;;;;;;;;108870;1251;59432;-79
2023/12/10 03:29:26;;;;;;;53.20;26.90;;;;;;;;;;109601;1251;60794;-79
2023/12/10 03:31:52;;;;;;;59.30;29.20;;;;;;;;;;109602;1254;59031;-78
2023/12/10 03:34:19;;;;;;;65.10;31.60;;;;;;;;;;109635;1253;58725;-78
2023/12/10 03:36:45;;;;;;;59.90;29.00;;;;;;;;;;109637;1251;59062;-79
2023/12/10 03:39:12;;;;;;;53.90;26.40;;;;;;;;;;109638;1251;58997;-79
2023/12/10 03:41:38;;;;;;;51.40;25.20;;;;;;;;;;109119;1251;59172;-79
2023/12/10 03:44:06;;;;;;;55.50;25.90;;;;;;;;;;109590;1251;58883;-80
2023/12/10 03:46:32;;;;;;;63.90;28.70;;;;;;;;;;107102;1251;60895;-78
2023/12/10 03:48:59;;;;;;;58.10;28.00;;;;;;;;;;107103;1254;59802;-79
2023/12/10 03:51:25;;;;;;;60.90;29.40;;;;;;;;;;107008;1254;59683;-79
2023/12/10 03:53:51;;;;;;;50.80;28.00;;;;;;;;;;107060;1251;59738;-79
2023/12/10 03:56:18;;;;;;;55.00;25.50;;;;;;;;;;107051;1253;59830;-78
2023/12/10 03:58:44;;;;;;;54.30;25.70;;;;;;;;;;107104;1251;59130;-80
2023/12/10 04:01:11;;;;;;;56.30;27.80;;;;;;;;;;106967;1251;61347;-79
2023/12/10 04:03:37;;;;;;;82.10;34.90;;;;;;;;;;107019;1254;60909;-79
2023/12/10 04:06:04;;;;;;;65.50;32.10;;;;;;;;;;107013;1251;61691;-78
2023/12/10 04:08:30;;;;;;;60.00;31.40;;;;;;;;;;106993;1253;61990;-79
2023/12/10 04:10:57;;;;;;;59.00;27.70;;;;;;;;;;106984;1253;61910;-79
2023/12/10 04:13:23;;;;;;;78.90;39.00;;;;;;;;;;107061;1251;61873;-79
2023/12/10 04:15:50;;;;;;;71.40;39.00;;;;;;;;;;107019;1253;61616;-78
2023/12/10 04:18:17;;;;;;;84.80;38.90;;;;;;;;;;107034;1253;60867;-79
2023/12/10 04:20:43;;;;;;;96.20;46.60;;;;;;;;;;107033;1251;62008;-79
2023/12/10 04:23:10;;;;;;;84.20;41.20;;;;;;;;;;107053;1251;59870;-79
2023/12/10 04:25:36;;;;;;;86.80;41.50;;;;;;;;;;107075;1253;59834;-79
2023/12/10 04:28:03;;;;;;;97.80;43.70;;;;;;;;;;107133;1253;60852;-79
2023/12/10 04:30:31;;;;;;;96.20;46.40;;;;;;;;;;107189;1253;60932;-79
2023/12/10 04:32:57;;;;;;;75.10;36.40;;;;;;;;;;107258;1253;59690;-81
2023/12/10 04:35:24;;;;;;;69.50;37.80;;;;;;;;;;107402;1251;59149;-79
2023/12/10 04:37:50;;;;;;;62.80;30.20;;;;;;;;;;107346;1250;62000;-80
2023/12/10 04:40:17;;;;;;;59.50;29.40;;;;;;;;;;107040;1253;59832;-79
2023/12/10 04:42:44;;;;;;;74.10;41.00;;;;;;;;;;107037;1253;59873;-80
2023/12/10 04:45:10;;;;;;;50.20;26.40;;;;;;;;;;107047;1251;61313;-79
2023/12/10 04:47:37;;;;;;;82.10;37.80;;;;;;;;;;107101;1251;59817;-80
2023/12/10 04:50:03;;;;;;;69.80;32.60;;;;;;;;;;107065;1256;59816;-79
2023/12/10 04:52:30;;;;;;;60.30;31.10;;;;;;;;;;106966;1251;59605;-78
2023/12/10 04:54:57;;;;;;;70.70;38.20;;;;;;;;;;107020;1255;59808;-79
2023/12/10 04:57:24;;;;;;;64.80;34.80;;;;;;;;;;109591;1251;58990;-79
2023/12/10 04:59:51;;;;;;;68.20;36.30;;;;;;;;;;109597;1251;59058;-79
2023/12/10 05:02:17;;;;;;;64.60;33.20;;;;;;;;;;109571;1250;62284;-79
2023/12/10 05:04:44;;;;;;;65.20;35.70;;;;;;;;;;109584;1250;59280;-79
2023/12/10 05:07:10;;;;;;;60.50;31.40;;;;;;;;;;109594;1250;60379;-79
2023/12/10 05:09:37;;;;;;;55.70;28.60;;;;;;;;;;108023;1251;59402;-79
2023/12/10 05:12:04;;;;;;;67.20;35.80;;;;;;;;;;107035;1255;59697;-79
2023/12/10 05:14:30;;;;;;;68.40;38.30;;;;;;;;;;106987;1254;62571;-78
2023/12/10 05:16:56;;;;;;;47.10;27.70;;;;;;;;;;107027;1254;60943;-79
2023/12/10 05:19:23;;;;;;;55.50;26.60;;;;;;;;;;107033;1254;60846;-78
2023/12/10 05:21:49;;;;;;;69.70;30.40;;;;;;;;;;108805;1251;61228;-80
2023/12/10 05:24:16;;;;;;;75.50;32.10;;;;;;;;;;109605;1251;58863;-79
2023/12/10 05:26:42;;;;;;;71.10;32.70;;;;;;;;;;109580;1251;59396;-79
2023/12/10 05:29:09;;;;;;;70.50;31.20;;;;;;;;;;109586;1254;58979;-79
2023/12/10 05:31:35;;;;;;;78.30;32.40;;;;;;;;;;109576;1251;58874;-78
2023/12/10 05:34:02;;;;;;;57.70;26.40;;;;;;;;;;109617;1251;59008;-78
2023/12/10 05:36:28;;;;;;;67.00;31.50;;;;;;;;;;109010;1251;58902;-78
2023/12/10 05:38:55;;;;;;;69.50;32.30;;;;;;;;;;108540;1253;59245;-80
2023/12/10 05:41:21;;;;;;;83.30;37.20;;;;;;;;;;107074;1254;59894;-79
2023/12/10 05:43:48;;;;;;;80.50;39.10;;;;;;;;;;106976;1256;59827;-79
2023/12/10 05:46:14;;;;;;;104.40;45.30;;;;;;;;;;107028;1251;60834;-78
2023/12/10 05:48:41;;;;;;;117.00;49.90;;;;;;;;;;107112;1251;60784;-80
2023/12/10 05:51:07;;;;;;;137.40;56.70;;;;;;;;;;107052;1253;60421;-78
2023/12/10 05:53:34;;;;;;;145.40;63.00;;;;;;;;;;107049;1253;60891;-78
2023/12/10 05:56:00;;;;;;;120.90;53.30;;;;;;;;;;107002;1254;59862;-79
2023/12/10 05:58:27;;;;;;;104.50;48.20;;;;;;;;;;106997;1251;60716;-78
2023/12/10 06:00:53;;;;;;;100.30;49.40;;;;;;;;;;106997;1253;60929;-78
2023/12/10 06:03:20;;;;;;;97.50;45.00;;;;;;;;;;107095;1255;61635;-79
2023/12/10 06:05:46;;;;;;;95.50;48.00;;;;;;;;;;106992;1256;62116;-78
2023/12/10 06:08:13;;;;;;;86.20;44.30;;;;;;;;;;107015;1253;59924;-79
2023/12/10 06:10:39;;;;;;;86.30;39.50;;;;;;;;;;107025;1251;60799;-79
2023/12/10 06:13:05;;;;;;;83.40;36.80;;;;;;;;;;107246;1251;59720;-78
2023/12/10 06:15:32;;;;;;;81.50;39.90;;;;;;;;;;109587;1251;58895;-79
2023/12/10 06:17:58;;;;;;;85.80;43.20;;;;;;;;;;109566;1251;58916;-78
2023/12/10 06:20:25;;;;;;;74.30;35.90;;;;;;;;;;109532;1251;58952;-80
2023/12/10 06:22:51;;;;;;;64.00;33.50;;;;;;;;;;109557;1251;59147;-79
2023/12/10 06:25:18;;;;;;;60.30;28.80;;;;;;;;;;109520;1251;58932;-81
2023/12/10 06:27:45;;;;;;;68.10;30.60;;;;;;;;;;108452;1251;59812;-79
2023/12/10 06:30:11;;;;;;;59.20;29.00;;;;;;;;;;107154;1256;59824;-79
2023/12/10 06:32:38;;;;;;;44.60;25.50;;;;;;;;;;107009;1254;139476;-79
2023/12/10 06:35:05;;;;;;;65.80;36.30;;;;;;;;;;107164;1256;59799;-78
2023/12/10 06:37:32;;;;;;;87.60;46.60;;;;;;;;;;107431;1251;60848;-78
2023/12/10 06:39:58;;;;;;;106.60;58.30;;;;;;;;;;107933;1254;62350;-79
2023/12/10 06:42:25;;;;;;;118.30;63.10;;;;;;;;;;108010;1251;59837;-79
2023/12/10 06:44:51;;;;;;;99.00;48.60;;;;;;;;;;108065;1254;60159;-79
2023/12/10 06:47:18;;;;;;;123.60;60.20;;;;;;;;;;108283;1251;59799;-79
2023/12/10 06:49:45;;;;;;;85.80;49.60;;;;;;;;;;108450;1251;62120;-78
2023/12/10 06:52:11;;;;;;;85.70;42.10;;;;;;;;;;107957;1253;59103;-78
2023/12/10 06:54:37;;;;;;;106.80;55.10;;;;;;;;;;107885;1251;60869;-79
2023/12/10 06:57:04;;;;;;;93.90;48.50;;;;;;;;;;107977;1254;59557;-80
2023/12/10 06:59:30;;;;;;;99.30;47.50;;;;;;;;;;107803;1251;59972;-79
2023/12/10 07:01:57;;;;;;;153.00;69.10;;;;;;;;;;107711;1255;59761;-79
2023/12/10 07:04:23;;;;;;;137.40;65.80;;;;;;;;;;107260;1254;59888;-77
2023/12/10 07:06:50;;;;;;;120.70;63.40;;;;;;;;;;107075;1251;59785;-78
2023/12/10 07:09:16;;;;;;;150.80;72.20;;;;;;;;;;107020;1254;59820;-78
2023/12/10 07:11:43;;;;;;;180.30;83.80;;;;;;;;;;107063;1263;60255;-78
2023/12/10 07:14:10;;;;;;;157.20;73.80;;;;;;;;;;107079;1251;59655;-79
2023/12/10 07:16:36;;;;;;;153.50;77.60;;;;;;;;;;107056;1251;61679;-78
2023/12/10 07:19:03;;;;;;;136.70;69.70;;;;;;;;;;107058;1251;61877;-78
2023/12/10 07:21:29;;;;;;;113.10;57.90;;;;;;;;;;107077;1253;60929;-79
2023/12/10 07:23:55;;;;;;;88.40;45.30;;;;;;;;;;107047;1253;59827;-79
2023/12/10 07:26:23;;;;;;;69.10;36.80;;;;;;;;;;106987;1251;59766;-79
2023/12/10 07:28:49;;;;;;;57.10;30.50;;;;;;;;;;107035;1252;61734;-78
2023/12/10 07:31:16;;;;;;;58.30;32.40;;;;;;;;;;107015;1251;59914;-79
2023/12/10 07:33:43;;;;;;;54.20;29.60;;;;;;;;;;106989;1256;59766;-79
2023/12/10 07:36:10;;;;;;;66.00;36.00;;;;;;;;;;106975;1251;62057;-78
2023/12/10 07:38:37;;;;;;;80.10;45.10;;;;;;;;;;106958;1254;61902;-78
2023/12/10 07:41:04;;;;;;;372.40;154.70;;;;;;;;;;107031;1254;61674;-78
2023/12/10 07:43:31;;;;;;;247.30;113.00;;;;;;;;;;106995;1256;60908;-78
2023/12/10 07:45:57;;;;;;;217.00;109.40;;;;;;;;;;106961;1251;60358;-79
2023/12/10 07:48:24;;;;;;;248.00;128.60;;;;;;;;;;107025;1251;59688;-80
2023/12/10 07:50:50;;;;;;;243.90;124.60;;;;;;;;;;106929;1251;59683;-79
2023/12/10 07:53:17;;;;;;;218.40;118.80;;;;;;;;;;106974;1251;59810;-79
2023/12/10 07:55:43;;;;;;;216.90;107.40;;;;;;;;;;106952;1251;60796;-79
2023/12/10 07:58:10;;;;;;;184.20;94.10;;;;;;;;;;107038;1250;59663;-79
2023/12/10 08:00:38;;;;;;;180.20;94.90;;;;;;;;;;107097;1250;60206;-78
2023/12/10 08:03:06;;;;;;;119.00;64.60;;;;;;;;;;106997;1251;62028;-78
2023/12/10 08:05:33;;;;;;;119.10;68.80;;;;;;;;;;109597;1250;62889;-79
2023/12/10 08:08:03;;;;;;;100.70;51.30;;;;;;;;;;109560;1251;59004;-80
2023/12/10 08:10:29;;;;;;;124.50;67.90;;;;;;;;;;106988;1254;59789;-79
2023/12/10 08:12:56;;;;;;;121.60;72.70;;;;;;;;;;107000;1254;59829;-79
2023/12/10 08:15:23;;;;;;;123.30;73.10;;;;;;;;;;107125;1251;59785;-78
2023/12/10 08:17:50;;;;;;;112.00;61.80;;;;;;;;;;107027;1251;61933;-80
2023/12/10 08:20:16;;;;;;;109.50;64.70;;;;;;;;;;107049;1251;59818;-78
2023/12/10 08:22:43;;;;;;;124.50;69.60;;;;;;;;;;107068;1254;60940;-78
2023/12/10 08:25:10;;;;;;;190.80;102.80;;;;;;;;;;107035;1251;59960;-79
2023/12/10 08:27:36;;;;;;;164.70;95.20;;;;;;;;;;107097;1251;59767;-78
2023/12/10 08:30:03;;;;;;;169.50;91.20;;;;;;;;;;107025;1251;62124;-78
2023/12/10 08:32:29;;;;;;;315.50;138.10;;;;;;;;;;106960;1254;59714;-78
2023/12/10 08:34:56;;;;;;;333.20;159.30;;;;;;;;;;106989;1254;60119;-78
2023/12/10 08:37:22;;;;;;;276.50;140.10;;;;;;;;;;107015;1251;61928;-79
2023/12/10 08:39:49;;;;;;;260.80;132.40;;;;;;;;;;107085;1251;59810;-79
2023/12/10 08:42:16;;;;;;;199.90;107.70;;;;;;;;;;106977;1251;62007;-79
2023/12/10 08:44:42;;;;;;;171.90;99.00;;;;;;;;;;107032;1254;59688;-78
2023/12/10 08:47:09;;;;;;;179.50;99.30;;;;;;;;;;107021;1251;60807;-79
2023/12/10 08:49:35;;;;;;;235.00;127.30;;;;;;;;;;106984;1251;60946;-78
2023/12/10 08:52:03;;;;;;;277.50;148.70;;;;;;;;;;107058;1251;61138;-79
2023/12/10 08:54:29;;;;;;;237.70;127.40;;;;;;;;;;107060;1251;63018;-79
2023/12/10 08:56:56;;;;;;;202.00;113.20;;;;;;;;;;107028;1251;60674;-78
2023/12/10 08:59:22;;;;;;;164.20;90.10;;;;;;;;;;107020;1251;60929;-78
2023/12/10 09:01:49;;;;;;;170.80;93.70;;;;;;;;;;107623;1251;60940;-79
2023/12/10 09:04:15;;;;;;;214.60;116.20;;;;;;;;;;107012;1251;59720;-78
2023/12/10 09:06:42;;;;;;;238.50;131.90;;;;;;;;;;106993;1251;60791;-79
2023/12/10 09:09:08;;;;;;;289.60;156.50;;;;;;;;;;107285;1251;62015;-79
2023/12/10 09:11:35;;;;;;;237.80;133.80;;;;;;;;;;106970;1251;60852;-78
2023/12/10 09:14:01;;;;;;;190.70;108.10;;;;;;;;;;106978;1251;59508;-79
2023/12/10 09:16:27;;;;;;;133.00;75.00;;;;;;;;;;108846;1251;61347;-79
2023/12/10 09:18:54;;;;;;;142.90;80.70;;;;;;;;;;109552;1251;59229;-78
2023/12/10 09:21:21;;;;;;;143.90;72.80;;;;;;;;;;109534;1251;59099;-79
2023/12/10 09:23:47;;;;;;;131.90;67.80;;;;;;;;;;109486;1251;59277;-79
2023/12/10 09:26:14;;;;;;;133.60;72.20;;;;;;;;;;109549;1251;58873;-79
2023/12/10 09:28:40;;;;;;;140.40;71.70;;;;;;;;;;109569;1250;59204;-79
2023/12/10 09:31:07;;;;;;;133.00;70.50;;;;;;;;;;109593;1250;59240;-79
2023/12/10 09:33:33;;;;;;;138.90;74.80;;;;;;;;;;108579;1251;59878;-79
2023/12/10 09:36:00;;;;;;;159.00;84.10;;;;;;;;;;107002;1251;59568;-79
2023/12/10 09:38:26;;;;;;;124.90;71.80;;;;;;;;;;107022;1251;60785;-79
2023/12/10 09:40:53;;;;;;;176.80;95.20;;;;;;;;;;107059;1251;59716;-79
2023/12/10 09:43:19;;;;;;;219.90;122.90;;;;;;;;;;106941;1251;60755;-79
2023/12/10 09:45:46;;;;;;;235.10;125.90;;;;;;;;;;107008;1251;60932;-79
2023/12/10 09:48:12;;;;;;;262.20;151.70;;;;;;;;;;106948;1251;59807;-79
2023/12/10 09:50:40;;;;;;;217.50;123.50;;;;;;;;;;106979;1251;60821;-79
2023/12/10 09:53:07;;;;;;;200.20;112.40;;;;;;;;;;107039;1251;62000;-80
2023/12/10 09:55:34;;;;;;;183.90;105.10;;;;;;;;;;107070;1250;60724;-79
2023/12/10 09:58:00;;;;;;;195.80;113.60;;;;;;;;;;106987;1251;60559;-80
2023/12/10 10:00:27;;;;;;;175.00;103.50;;;;;;;;;;106992;1251;59807;-79
2023/12/10 10:03:02;;;;;;;163.70;98.70;;;;;;;;;;107011;1251;59249;-79
2023/12/10 10:05:29;;;;;;;154.00;91.00;;;;;;;;;;107078;1251;59721;-79
2023/12/10 10:07:56;;;;;;;145.80;83.30;;;;;;;;;;107024;1251;59777;-78
2023/12/10 10:10:22;;;;;;;140.20;82.30;;;;;;;;;;107065;1250;59255;-79
2023/12/10 10:12:49;;;;;;;128.10;74.40;;;;;;;;;;107060;1251;60207;-80
2023/12/10 10:15:24;;;;;;;119.30;68.70;;;;;;;;;;107121;1250;59173;-80
2023/12/10 10:17:50;;;;;;;120.80;63.30;;;;;;;;;;108175;1254;59730;-79
2023/12/10 10:20:16;;;;;;;119.50;64.30;;;;;;;;;;109587;1250;60291;-79
2023/12/10 10:22:43;;;;;;;118.10;64.80;;;;;;;;;;109558;1251;58918;-79
2023/12/10 10:25:10;;;;;;;109.50;63.20;;;;;;;;;;109564;1251;58936;-79
2023/12/10 10:27:36;;;;;;;115.80;66.00;;;;;;;;;;109561;1250;58931;-79
2023/12/10 10:30:03;;;;;;;135.50;76.10;;;;;;;;;;109540;1251;59075;-79
2023/12/10 10:32:30;;;;;;;107.20;59.10;;;;;;;;;;108897;1250;62765;-79
2023/12/10 10:34:56;;;;;;;84.20;47.20;;;;;;;;;;107001;1251;59694;-79
2023/12/10 10:37:24;;;;;;;82.70;44.00;;;;;;;;;;107023;1251;59731;-80
2023/12/10 10:39:51;;;;;;;65.20;35.60;;;;;;;;;;107086;1251;59807;-79
2023/12/10 10:42:17;;;;;;;62.30;32.90;;;;;;;;;;106997;1251;59777;-79
2023/12/10 10:44:45;;;;;;;62.70;34.80;;;;;;;;;;107025;1251;62761;-79
2023/12/10 10:47:12;;;;;;;64.30;36.80;;;;;;;;;;107071;1251;60846;-79
2023/12/10 10:49:44;;;;;;;94.70;61.10;;;;;;;;;;107094;1251;60955;-79
2023/12/10 10:52:19;;;;;;;107.30;65.20;;;;;;;;;;107034;1251;60890;-79
2023/12/10 10:54:46;;;;;;;55.30;34.50;;;;;;;;;;107043;1251;60726;-79
2023/12/10 10:57:12;;;;;;;98.90;56.30;;;;;;;;;;107008;1251;60752;-79
2023/12/10 10:59:39;;;;;;;71.50;43.50;;;;;;;;;;107008;1251;59834;-79
2023/12/10 11:02:06;;;;;;;56.50;31.10;;;;;;;;;;107020;1251;60778;-79
2023/12/10 11:04:37;;;;;;;79.10;35.90;;;;;;;;;;107000;1251;59886;-80
2023/12/10 11:07:04;;;;;;;167.00;65.70;;;;;;;;;;107558;1251;59232;-79
2023/12/10 11:09:31;;;;;;;79.10;32.50;;;;;;;;;;107052;1251;62592;-79
2023/12/10 11:11:58;;;;;;;51.90;19.10;;;;;;;;;;107081;1251;62048;-80
2023/12/10 11:14:25;;;;;;;184.80;68.30;;;;;;;;;;107061;1251;59723;-79
2023/12/10 11:17:05;;;;;;;75.10;33.90;;;;;;;;;;106993;1251;62040;-79
2023/12/10 11:19:32;;;;;;;158.70;61.40;;;;;;;;;;107076;1251;59721;-79
2023/12/10 11:21:59;;;;;;;92.20;34.50;;;;;;;;;;107056;1255;62562;-79
2023/12/10 11:24:26;;;;;;;99.40;38.20;;;;;;;;;;107013;1251;59781;-79
2023/12/10 11:26:52;;;;;;;178.80;67.20;;;;;;;;;;107014;1251;60650;-79
2023/12/10 11:29:19;;;;;;;233.40;83.10;;;;;;;;;;106980;1251;59200;-79
2023/12/10 11:31:45;;;;;;;97.10;39.70;;;;;;;;;;106995;1251;60741;-79
2023/12/10 11:34:12;;;;;;;35.30;15.90;;;;;;;;;;106946;1254;62588;-79
2023/12/10 11:36:38;;;;;;;206.40;83.70;;;;;;;;;;106971;1250;61041;-79
2023/12/10 11:39:13;;;;;;;135.50;55.00;;;;;;;;;;106994;1254;61648;-79
2023/12/10 11:41:41;;;;;;;77.90;35.10;;;;;;;;;;107008;1251;60837;-79
2023/12/10 11:44:07;;;;;;;182.40;77.30;;;;;;;;;;107013;1251;60769;-79
2023/12/10 11:46:34;;;;;;;124.80;52.70;;;;;;;;;;107006;1255;59845;-79
2023/12/10 11:49:00;;;;;;;56.10;26.60;;;;;;;;;;106980;1251;59703;-79
2023/12/10 11:51:27;;;;;;;69.90;32.00;;;;;;;;;;107015;1251;60948;-79
2023/12/10 11:53:53;;;;;;;75.80;36.10;;;;;;;;;;106993;1251;59311;-79
2023/12/10 11:56:21;;;;;;;97.60;44.00;;;;;;;;;;106984;1250;59790;-79
2023/12/10 11:58:47;;;;;;;106.30;48.40;;;;;;;;;;107032;1251;63159;-79
2023/12/10 12:01:15;;;;;;;103.00;56.20;;;;;;;;;;106984;1251;59725;-79
2023/12/10 12:03:41;;;;;;;117.30;61.00;;;;;;;;;;107015;1251;59346;-79
2023/12/10 12:06:08;;;;;;;123.50;64.70;;;;;;;;;;107028;1251;59781;-79
2023/12/10 12:08:34;;;;;;;202.10;75.80;;;;;;;;;;106969;1251;59886;-79
2023/12/10 12:11:01;;;;;;;230.50;85.90;;;;;;;;;;106983;1251;60873;-79
2023/12/10 12:13:27;;;;;;;121.10;46.40;;;;;;;;;;107063;1251;60792;-79
2023/12/10 12:15:54;;;;;;;111.20;40.50;;;;;;;;;;106975;1251;60706;-79
2023/12/10 12:18:24;;;;;;;44.90;17.50;;;;;;;;;;108770;1251;59904;-79
2023/12/10 12:20:51;;;;;;;496.80;160.70;;;;;;;;;;109570;1251;58799;-79
2023/12/10 12:23:17;;;;;;;120.50;42.00;;;;;;;;;;109560;1250;62860;-79
2023/12/10 12:25:44;;;;;;;153.90;58.10;;;;;;;;;;109554;1251;59106;-79
2023/12/10 12:28:11;;;;;;;81.50;43.50;;;;;;;;;;109571;1251;59443;-79
2023/12/10 12:30:37;;;;;;;55.60;33.60;;;;;;;;;;109533;1250;58841;-79
2023/12/10 12:33:04;;;;;;;16.70;11.10;;;;;;;;;;109600;1250;58936;-79
2023/12/10 12:35:30;;;;;;;54.10;22.50;;;;;;;;;;107846;1252;61685;-79
2023/12/10 12:37:57;;;;;;;76.10;31.90;;;;;;;;;;107033;1251;59898;-79
2023/12/10 12:40:23;;;;;;;81.30;36.30;;;;;;;;;;106990;1251;61510;-79
2023/12/10 12:42:50;;;;;;;120.20;45.10;;;;;;;;;;107031;1250;59770;-79
2023/12/10 12:45:17;;;;;;;119.00;41.00;;;;;;;;;;107003;1250;59656;-79
2023/12/10 12:47:44;;;;;;;192.50;73.10;;;;;;;;;;106985;1251;62136;-79
2023/12/10 12:50:10;;;;;;;134.50;51.10;;;;;;;;;;106956;1251;60798;-79
2023/12/10 12:52:36;;;;;;;97.00;37.50;;;;;;;;;;106993;1251;59771;-79
2023/12/10 12:55:03;;;;;;;124.10;51.60;;;;;;;;;;106981;1251;59733;-79
2023/12/10 12:57:30;;;;;;;47.00;20.10;;;;;;;;;;107056;1251;59172;-78
2023/12/10 12:59:56;;;;;;;164.10;78.10;;;;;;;;;;106931;1251;59852;-79
2023/12/10 13:02:23;;;;;;;162.40;71.90;;;;;;;;;;106935;1251;60687;-79
2023/12/10 13:04:49;;;;;;;39.30;21.10;;;;;;;;;;106972;1250;59167;-79
2023/12/10 13:07:16;;;;;;;28.30;15.10;;;;;;;;;;107001;1254;59870;-79
2023/12/10 13:09:42;;;;;;;54.40;33.70;;;;;;;;;;106967;1251;59872;-78
2023/12/10 13:12:09;;;;;;;89.20;43.90;;;;;;;;;;106961;1250;60786;-78
2023/12/10 13:14:36;;;;;;;40.30;21.00;;;;;;;;;;107087;1251;59682;-79
2023/12/10 13:17:04;;;;;;;51.70;28.60;;;;;;;;;;106968;1253;59820;-79
2023/12/10 13:19:30;;;;;;;24.00;12.70;;;;;;;;;;107021;1251;60751;-79
2023/12/10 13:21:57;;;;;;;20.70;11.60;;;;;;;;;;106989;1251;59463;-79
2023/12/10 13:24:23;;;;;;;43.70;25.00;;;;;;;;;;106994;1250;59813;-79
2023/12/10 13:26:50;;;;;;;37.90;16.90;;;;;;;;;;107036;1251;59226;-79
2023/12/10 13:29:16;;;;;;;32.90;19.40;;;;;;;;;;107027;1251;60315;-78
2023/12/10 13:31:43;;;;;;;29.10;15.20;;;;;;;;;;107066;1251;60715;-79
2023/12/10 13:34:10;;;;;;;29.70;15.30;;;;;;;;;;107006;1251;59807;-79
2023/12/10 13:36:38;;;;;;;17.40;9.50;;;;;;;;;;107015;1251;60861;-79
2023/12/10 13:39:05;;;;;;;13.20;6.90;;;;;;;;;;107005;1251;60852;-79
2023/12/10 13:41:31;;;;;;;15.80;9.70;;;;;;;;;;106962;1251;59826;-79
2023/12/10 13:43:57;;;;;;;20.20;12.60;;;;;;;;;;107027;1251;59799;-79
2023/12/10 13:46:25;;;;;;;28.20;17.70;;;;;;;;;;106959;1251;59886;-79
2023/12/10 13:48:52;;;;;;;30.10;19.50;;;;;;;;;;107066;1250;62135;-80
2023/12/10 13:51:19;;;;;;;14.80;7.50;;;;;;;;;;107091;1251;59398;-79
2023/12/10 13:53:46;;;;;;;22.00;12.40;;;;;;;;;;107543;1251;59830;-80